createdAt,value
2023-04-28T00:00:05.250Z,8.90
2023-04-28T00:02:33.653Z,8.20
2023-04-28T00:05:00.463Z,8.70
2023-04-28T00:07:27.224Z,10.70
2023-04-28T00:09:54.368Z,6.80
2023-04-28T00:12:21.084Z,12.10
2023-04-28T00:14:47.812Z,6.60
2023-04-28T00:17:14.628Z,6.40
2023-04-28T00:19:41.603Z,9.90
2023-04-28T00:22:09.033Z,10.60
2023-04-28T00:24:36.090Z,8.80
2023-04-28T00:27:03.145Z,8.50
2023-04-28T00:29:30.209Z,7.80
2023-04-28T00:31:57.060Z,5.80
2023-04-28T00:34:24.007Z,11.10
2023-04-28T00:36:50.972Z,16.20
2023-04-28T00:39:18.058Z,15.70
2023-04-28T00:41:44.827Z,30.30
2023-04-28T00:44:11.727Z,17.20
2023-04-28T00:46:38.533Z,14.70
2023-04-28T00:49:05.692Z,12.30
2023-04-28T00:51:33.166Z,14.60
2023-04-28T00:53:59.953Z,6.80
2023-04-28T00:56:27.922Z,5.20
2023-04-28T00:58:54.819Z,5.80
2023-04-28T01:01:22.069Z,8.70
2023-04-28T01:03:49.212Z,6.80
2023-04-28T01:06:17.157Z,7.30
2023-04-28T01:08:50.417Z,5.80
2023-04-28T01:11:17.830Z,10.30
2023-04-28T01:14:10.702Z,20.70
2023-04-28T01:19:13.953Z,10.60
2023-04-28T01:21:40.813Z,9.20
2023-04-28T01:24:18.733Z,9.10
2023-04-28T01:26:45.846Z,7.40
2023-04-28T01:29:12.667Z,8.10
2023-04-28T01:31:40.576Z,6.20
2023-04-28T01:34:07.427Z,6.70
2023-04-28T01:36:37.540Z,7.20
2023-04-28T01:39:05.336Z,9.40
2023-04-28T01:41:33.904Z,9.00
2023-04-28T01:44:00.705Z,14.00
2023-04-28T01:46:27.489Z,10.20
2023-04-28T01:48:54.251Z,11.00
2023-04-28T01:51:20.959Z,16.00
2023-04-28T01:53:47.741Z,8.30
2023-04-28T01:56:14.593Z,5.60
2023-04-28T01:58:42.324Z,4.80
2023-04-28T02:01:09.243Z,11.00
2023-04-28T02:03:36.474Z,6.10
2023-04-28T02:06:04.318Z,5.60
2023-04-28T02:08:31.641Z,7.60
2023-04-28T02:10:58.414Z,8.40
2023-04-28T02:13:25.618Z,8.20
2023-04-28T02:15:53.315Z,6.40
2023-04-28T02:18:21.405Z,6.10
2023-04-28T02:20:48.086Z,7.20
2023-04-28T02:23:14.845Z,5.40
2023-04-28T02:25:41.834Z,7.60
2023-04-28T02:28:12.613Z,9.80
2023-04-28T02:30:39.338Z,6.30
2023-04-28T02:33:06.147Z,6.00
2023-04-28T02:35:33.613Z,7.60
2023-04-28T02:38:00.375Z,10.30
2023-04-28T02:40:27.113Z,7.70
2023-04-28T02:42:53.856Z,7.10
2023-04-28T02:45:20.649Z,8.20
2023-04-28T02:47:47.457Z,13.90
2023-04-28T02:50:14.250Z,5.80
2023-04-28T02:52:41.056Z,5.80
2023-04-28T02:55:08.147Z,5.40
2023-04-28T02:57:34.993Z,8.00
2023-04-28T03:00:02.345Z,7.40
2023-04-28T03:02:33.204Z,6.10
2023-04-28T03:05:00.124Z,10.10
2023-04-28T03:07:26.938Z,7.60
2023-04-28T03:09:53.632Z,12.00
2023-04-28T03:12:20.449Z,11.50
2023-04-28T03:14:47.173Z,6.10
2023-04-28T03:17:13.957Z,5.20
2023-04-28T03:19:40.827Z,8.80
2023-04-28T03:22:07.506Z,10.60
2023-04-28T03:24:34.228Z,8.00
2023-04-28T03:27:03.084Z,7.80
2023-04-28T03:29:30.101Z,9.30
2023-04-28T03:31:56.884Z,7.10
2023-04-28T03:34:23.721Z,9.00
2023-04-28T03:36:50.849Z,9.30
2023-04-28T03:39:23.225Z,9.60
2023-04-28T03:41:50.117Z,8.20
2023-04-28T03:44:55.260Z,12.20
2023-04-28T03:47:22.063Z,13.60
2023-04-28T03:49:49.005Z,7.10
2023-04-28T03:52:15.786Z,10.90
2023-04-28T03:54:42.576Z,7.20
2023-04-28T03:57:10.025Z,10.20
2023-04-28T03:59:36.765Z,9.90
2023-04-28T04:02:03.991Z,8.20
2023-04-28T04:04:31.006Z,11.10
2023-04-28T04:06:58.407Z,6.30
2023-04-28T04:09:25.318Z,5.20
2023-04-28T04:11:52.143Z,11.00
2023-04-28T04:14:19.089Z,7.30
2023-04-28T04:16:47.127Z,4.20
2023-04-28T04:19:13.804Z,8.20
2023-04-28T04:21:41.660Z,9.00
2023-04-28T04:24:09.941Z,10.60
2023-04-28T04:26:37.420Z,9.60
2023-04-28T04:29:13.975Z,12.90
2023-04-28T04:31:40.835Z,13.70
2023-04-28T04:34:07.773Z,10.10
2023-04-28T04:36:34.507Z,13.60
2023-04-28T04:39:01.543Z,19.20
2023-04-28T04:41:28.481Z,11.20
2023-04-28T04:44:07.716Z,9.20
2023-04-28T04:46:37.980Z,8.10
2023-04-28T04:49:04.746Z,8.40
2023-04-28T04:51:31.604Z,7.10
2023-04-28T04:53:58.350Z,9.00
2023-04-28T04:56:25.292Z,17.40
2023-04-28T04:58:52.149Z,15.90
2023-04-28T05:01:44.883Z,10.30
2023-04-28T05:04:12.670Z,4.70
2023-04-28T05:06:40.057Z,9.00
2023-04-28T05:09:06.861Z,6.60
2023-04-28T05:11:33.755Z,6.60
2023-04-28T05:14:00.557Z,18.40
2023-04-28T05:16:28.566Z,20.50
2023-04-28T05:19:15.801Z,35.40
2023-04-28T05:21:42.637Z,17.40
2023-04-28T05:24:09.521Z,21.00
2023-04-28T05:26:36.323Z,25.50
2023-04-28T05:29:06.329Z,13.90
2023-04-28T05:31:33.140Z,29.80
2023-04-28T05:34:00.331Z,31.60
2023-04-28T05:36:27.726Z,27.90
2023-04-28T05:38:54.603Z,28.50
2023-04-28T05:41:21.489Z,25.40
2023-04-28T05:43:50.457Z,28.80
2023-04-28T05:46:29.122Z,17.80
2023-04-28T05:48:57.316Z,15.10
2023-04-28T05:51:24.132Z,12.80
2023-04-28T05:53:51.416Z,13.90
2023-04-28T05:56:18.698Z,12.00
2023-04-28T05:58:46.696Z,6.00
2023-04-28T06:01:13.489Z,21.00
2023-04-28T06:03:44.453Z,19.80
2023-04-28T06:06:11.478Z,24.60
2023-04-28T06:08:38.365Z,20.00
2023-04-28T06:11:06.223Z,36.00
2023-04-28T06:13:33.107Z,24.30
2023-04-28T06:16:00.074Z,18.60
2023-04-28T06:18:31.853Z,15.70
2023-04-28T06:21:01.004Z,15.20
2023-04-28T06:23:28.624Z,24.10
2023-04-28T06:25:55.382Z,9.80
2023-04-28T06:28:22.069Z,13.10
2023-04-28T06:30:48.807Z,8.80
2023-04-28T06:33:15.623Z,6.80
2023-04-28T06:35:42.383Z,10.80
2023-04-28T06:38:09.281Z,9.90
2023-04-28T06:40:37.534Z,14.00
2023-04-28T06:43:06.249Z,11.70
2023-04-28T06:45:41.258Z,6.20
2023-04-28T06:48:08.900Z,12.20
2023-04-28T06:50:38.430Z,8.40
2023-04-28T06:55:34.085Z,15.00
2023-04-28T06:58:00.922Z,8.80
2023-04-28T07:00:28.192Z,14.10
2023-04-28T07:02:55.351Z,15.30
2023-04-28T07:05:22.359Z,12.10
2023-04-28T07:07:49.135Z,10.80
2023-04-28T07:10:16.095Z,17.40
2023-04-28T07:12:42.922Z,7.40
2023-04-28T07:15:10.457Z,10.60
2023-04-28T07:17:37.760Z,9.20
2023-04-28T07:20:06.737Z,8.60
2023-04-28T07:22:33.948Z,11.50
2023-04-28T07:25:00.782Z,23.10
2023-04-28T07:27:27.700Z,7.30
2023-04-28T07:29:54.581Z,11.10
2023-04-28T07:32:21.515Z,8.30
2023-04-28T07:34:48.258Z,4.10
2023-04-28T07:37:15.610Z,12.30
2023-04-28T07:39:42.630Z,6.20
2023-04-28T07:42:09.548Z,7.70
2023-04-28T07:44:36.308Z,4.80
2023-04-28T07:47:03.037Z,8.90
2023-04-28T07:49:29.832Z,7.40
2023-04-28T07:51:56.765Z,13.70
2023-04-28T07:54:23.570Z,15.90
2023-04-28T07:56:51.068Z,11.70
2023-04-28T07:59:19.075Z,7.70
2023-04-28T08:01:45.853Z,10.30
2023-04-28T08:04:13.309Z,9.70
2023-04-28T08:06:40.466Z,8.80
2023-04-28T08:09:07.243Z,7.60
2023-04-28T08:11:34.128Z,8.70
2023-04-28T08:14:02.478Z,8.20
2023-04-28T08:16:29.649Z,9.40
2023-04-28T08:18:56.727Z,8.00
2023-04-28T08:21:23.491Z,9.80
2023-04-28T08:23:50.267Z,7.40
2023-04-28T08:26:17.017Z,10.30
2023-04-28T08:28:45.186Z,20.40
2023-04-28T08:31:12.898Z,8.10
2023-04-28T08:33:43.777Z,11.80
2023-04-28T08:36:11.474Z,8.50
2023-04-28T08:38:38.707Z,12.40
2023-04-28T08:41:05.498Z,14.00
2023-04-28T08:43:35.995Z,12.00
2023-04-28T08:46:05.791Z,8.00
2023-04-28T08:48:40.621Z,8.30
2023-04-28T08:51:07.786Z,6.40
2023-04-28T08:53:59.441Z,7.60
2023-04-28T08:56:26.936Z,16.10
2023-04-28T08:58:53.624Z,12.30
2023-04-28T09:01:20.574Z,8.70
2023-04-28T09:03:48.769Z,11.40
2023-04-28T09:08:42.393Z,11.60
2023-04-28T09:11:11.412Z,15.70
2023-04-28T09:13:39.435Z,11.40
2023-04-28T09:16:06.743Z,9.60
2023-04-28T09:18:33.533Z,21.80
2023-04-28T09:21:07.665Z,18.10
2023-04-28T09:23:35.819Z,21.70
2023-04-28T09:26:04.368Z,14.40
2023-04-28T09:28:32.151Z,18.60
2023-04-28T09:30:58.904Z,13.30
2023-04-28T09:33:25.826Z,14.20
2023-04-28T09:35:52.976Z,15.70
2023-04-28T09:38:20.914Z,8.20
2023-04-28T09:40:58.363Z,9.40
2023-04-28T09:43:32.809Z,10.90
2023-04-28T09:46:01.562Z,6.10
2023-04-28T09:48:28.554Z,9.50
2023-04-28T09:50:56.176Z,4.60
2023-04-28T09:53:24.203Z,6.90
2023-04-28T09:55:56.374Z,8.50
2023-04-28T09:58:24.266Z,8.00
2023-04-28T10:00:54.914Z,8.00
2023-04-28T10:03:24.271Z,6.10
2023-04-28T10:05:52.968Z,4.40
2023-04-28T10:08:22.944Z,8.60
2023-04-28T10:10:52.414Z,5.20
2023-04-28T10:13:19.910Z,7.70
2023-04-28T10:15:48.240Z,11.40
2023-04-28T10:18:17.845Z,11.40
2023-04-28T10:20:46.035Z,10.30
2023-04-28T10:23:31.331Z,13.60
2023-04-28T10:25:59.355Z,7.20
2023-04-28T10:28:26.409Z,16.80
2023-04-28T10:31:10.784Z,10.90
2023-04-28T10:33:58.781Z,9.40
2023-04-28T10:39:13.677Z,10.60
2023-04-28T10:41:41.300Z,9.00
2023-04-28T10:44:43.800Z,10.50
2023-04-28T10:47:11.517Z,8.40
2023-04-28T10:49:59.056Z,11.10
2023-04-28T10:52:39.074Z,17.60
2023-04-28T10:55:32.137Z,16.30
2023-04-28T10:58:19.858Z,9.40
2023-04-28T11:00:47.304Z,9.70
2023-04-28T11:03:46.638Z,14.40
2023-04-28T11:06:20.856Z,21.70
2023-04-28T11:08:47.549Z,13.10
2023-04-28T11:11:18.934Z,8.30
2023-04-28T11:13:46.577Z,10.50
2023-04-28T11:16:21.077Z,7.10
2023-04-28T11:18:58.830Z,12.90
2023-04-28T11:21:27.612Z,6.10
2023-04-28T11:23:54.619Z,15.10
2023-04-28T11:26:23.114Z,13.60
2023-04-28T11:28:51.668Z,10.60
2023-04-28T11:31:20.220Z,4.30
2023-04-28T11:34:15.097Z,9.30
2023-04-28T11:36:42.466Z,3.90
2023-04-28T11:39:10.799Z,4.90
2023-04-28T11:41:40.242Z,5.40
2023-04-28T11:44:13.186Z,20.30
2023-04-28T11:46:56.722Z,9.90
2023-04-28T11:49:28.467Z,10.10
2023-04-28T11:51:56.149Z,9.50
2023-04-28T11:54:28.888Z,12.20
2023-04-28T11:56:57.019Z,13.80
2023-04-28T11:59:25.614Z,5.30
2023-04-28T12:02:10.886Z,7.30
2023-04-28T12:04:39.107Z,10.20
2023-04-28T12:07:13.387Z,6.80
2023-04-28T12:09:42.809Z,3.60
2023-04-28T12:12:11.882Z,4.70
2023-04-28T12:14:58.846Z,7.50
2023-04-28T12:17:41.790Z,5.60
2023-04-28T12:20:12.498Z,11.10
2023-04-28T12:22:50.025Z,6.70
2023-04-28T12:25:18.800Z,4.50
2023-04-28T12:28:05.044Z,3.40
2023-04-28T12:30:41.450Z,9.70
2023-04-28T12:33:24.584Z,10.10
2023-04-28T12:35:51.828Z,8.10
2023-04-28T12:38:18.724Z,6.50
2023-04-28T12:40:46.122Z,6.00
2023-04-28T12:43:12.942Z,8.50
2023-04-28T12:45:40.664Z,7.00
2023-04-28T12:48:08.582Z,11.50
2023-04-28T12:50:35.442Z,4.30
2023-04-28T12:53:02.576Z,6.80
2023-04-28T12:55:29.979Z,8.60
2023-04-28T12:57:56.902Z,10.40
2023-04-28T13:00:24.432Z,9.00
2023-04-28T13:02:52.455Z,6.30
2023-04-28T13:05:19.396Z,10.60
2023-04-28T13:07:47.075Z,10.20
2023-04-28T13:10:13.913Z,20.90
2023-04-28T13:12:41.039Z,8.30
2023-04-28T13:15:08.582Z,4.50
2023-04-28T13:17:35.654Z,10.80
2023-04-28T13:20:03.479Z,19.90
2023-04-28T13:22:30.834Z,11.50
2023-04-28T13:24:57.875Z,4.70
2023-04-28T13:27:29.855Z,8.80
2023-04-28T13:29:58.657Z,4.80
2023-04-28T13:32:27.382Z,6.00
2023-04-28T13:34:54.231Z,9.80
2023-04-28T13:37:21.049Z,7.70
2023-04-28T13:39:48.287Z,4.00
2023-04-28T13:42:15.630Z,6.00
2023-04-28T13:44:42.641Z,10.10
2023-04-28T13:47:10.520Z,4.20
2023-04-28T13:49:39.162Z,4.60
2023-04-28T13:54:33.119Z,6.00
2023-04-28T13:57:00.740Z,9.80
2023-04-28T13:59:27.420Z,11.40
2023-04-28T14:01:54.157Z,8.10
2023-04-28T14:04:21.208Z,10.60
2023-04-28T14:09:16.897Z,10.60
2023-04-28T14:14:13.491Z,11.60
2023-04-28T14:16:40.454Z,14.50
2023-04-28T14:19:07.995Z,14.40
2023-04-28T14:24:03.475Z,6.90
2023-04-28T14:26:30.276Z,5.80
2023-04-28T14:28:57.374Z,17.60
2023-04-28T14:31:24.425Z,25.30
2023-04-28T14:33:51.139Z,20.60
2023-04-28T14:36:17.911Z,12.00
2023-04-28T14:38:44.676Z,11.90
2023-04-28T14:41:11.493Z,12.60
2023-04-28T14:43:38.323Z,9.00
2023-04-28T14:46:05.797Z,12.00
2023-04-28T14:48:33.223Z,15.30
2023-04-28T14:51:01.000Z,4.80
2023-04-28T14:53:28.030Z,4.70
2023-04-28T14:55:59.436Z,6.50
2023-04-28T14:58:35.350Z,7.40
2023-04-28T15:01:02.821Z,4.80
2023-04-28T15:03:29.980Z,4.20
2023-04-28T15:05:57.002Z,2.20
2023-04-28T15:08:24.018Z,2.40
2023-04-28T15:10:51.203Z,9.00
2023-04-28T15:13:17.974Z,3.70
2023-04-28T15:15:44.813Z,5.20
2023-04-28T15:18:11.612Z,6.30
2023-04-28T15:20:38.707Z,31.80
2023-04-28T15:23:05.675Z,18.20
2023-04-28T15:25:33.160Z,6.20
2023-04-28T15:28:00.155Z,6.30
2023-04-28T15:30:26.988Z,4.40
2023-04-28T15:32:54.033Z,5.20
2023-04-28T15:35:21.687Z,9.70
2023-04-28T15:37:51.381Z,4.70
2023-04-28T15:40:18.809Z,8.50
2023-04-28T15:42:48.802Z,10.20
2023-04-28T15:45:16.194Z,3.40
2023-04-28T15:47:43.121Z,11.30
2023-04-28T15:50:10.303Z,4.70
2023-04-28T15:52:40.145Z,5.40
2023-04-28T15:55:07.882Z,6.30
2023-04-28T15:57:35.909Z,8.60
2023-04-28T16:00:06.324Z,9.50
2023-04-28T16:02:37.073Z,11.90
2023-04-28T16:05:04.546Z,20.20
2023-04-28T16:07:37.532Z,17.20
2023-04-28T16:10:09.184Z,12.10
2023-04-28T16:12:36.250Z,9.90
2023-04-28T16:15:03.529Z,12.20
2023-04-28T16:17:30.660Z,10.30
2023-04-28T16:19:57.685Z,13.20
2023-04-28T16:22:26.644Z,7.80
2023-04-28T16:24:56.206Z,6.50
2023-04-28T16:27:23.102Z,8.70
2023-04-28T16:29:50.489Z,6.30
2023-04-28T16:32:17.283Z,4.40
2023-04-28T16:34:44.534Z,5.70
2023-04-28T16:37:11.406Z,7.20
2023-04-28T16:39:38.490Z,18.20
2023-04-28T16:42:05.535Z,16.20
2023-04-28T16:44:32.409Z,16.10
2023-04-28T16:46:59.245Z,11.70
2023-04-28T16:49:26.093Z,15.80
2023-04-28T16:51:59.240Z,8.80
2023-04-28T16:54:27.586Z,11.60
2023-04-28T16:56:55.402Z,8.60
2023-04-28T16:59:22.314Z,15.20
2023-04-28T17:01:49.335Z,13.30
2023-04-28T17:04:17.292Z,22.90
2023-04-28T17:06:45.008Z,14.20
2023-04-28T17:09:12.249Z,16.00
2023-04-28T17:11:39.086Z,14.00
2023-04-28T17:14:06.447Z,15.10
2023-04-28T17:16:33.877Z,17.20
2023-04-28T17:19:01.196Z,12.20
2023-04-28T17:21:28.762Z,11.00
2023-04-28T17:23:57.081Z,11.00
2023-04-28T17:26:24.697Z,12.50
2023-04-28T17:28:52.554Z,13.00
2023-04-28T17:31:19.379Z,17.50
2023-04-28T17:33:46.934Z,19.70
2023-04-28T17:36:13.893Z,22.50
2023-04-28T17:38:40.877Z,19.40
2023-04-28T17:41:07.884Z,17.70
2023-04-28T17:43:36.163Z,21.70
2023-04-28T17:46:03.410Z,23.50
2023-04-28T17:48:30.869Z,23.10
2023-04-28T17:50:57.828Z,30.40
2023-04-28T17:53:25.063Z,32.30
2023-04-28T17:55:51.907Z,26.00
2023-04-28T17:58:19.570Z,31.00
2023-04-28T18:00:46.413Z,29.10
2023-04-28T18:03:13.348Z,26.50
2023-04-28T18:05:40.867Z,23.20
2023-04-28T18:08:07.621Z,35.00
2023-04-28T18:10:34.807Z,46.90
2023-04-28T18:13:01.827Z,75.00
2023-04-28T18:15:28.784Z,71.60
2023-04-28T18:17:56.395Z,91.40
2023-04-28T18:20:23.758Z,70.10
2023-04-28T18:22:50.914Z,59.00
2023-04-28T18:25:18.623Z,49.90
2023-04-28T18:27:45.560Z,28.70
2023-04-28T18:30:12.808Z,28.60
2023-04-28T18:32:40.270Z,28.30
2023-04-28T18:35:07.230Z,38.60
2023-04-28T18:37:36.427Z,21.70
2023-04-28T18:40:03.818Z,15.60
2023-04-28T18:42:32.083Z,17.80
2023-04-28T18:44:59.124Z,19.40
2023-04-28T18:47:25.957Z,17.40
2023-04-28T18:49:53.388Z,15.50
2023-04-28T18:52:20.239Z,48.30
2023-04-28T18:54:47.281Z,34.00
2023-04-28T18:57:16.577Z,30.60
2023-04-28T18:59:43.548Z,23.40
2023-04-28T19:02:10.403Z,20.80
2023-04-28T19:04:41.448Z,16.30
2023-04-28T19:07:08.549Z,14.80
2023-04-28T19:09:35.599Z,24.80
2023-04-28T19:12:02.381Z,18.00
2023-04-28T19:14:29.494Z,20.70
2023-04-28T19:16:56.368Z,16.90
2023-04-28T19:19:23.400Z,13.20
2023-04-28T19:21:50.321Z,11.30
2023-04-28T19:24:17.366Z,32.80
2023-04-28T19:26:44.308Z,28.50
2023-04-28T19:29:14.373Z,33.90
2023-04-28T19:31:41.145Z,32.90
2023-04-28T19:34:08.016Z,19.90
2023-04-28T19:36:35.154Z,18.40
2023-04-28T19:39:01.954Z,32.70
2023-04-28T19:41:29.154Z,20.60
2023-04-28T19:43:56.143Z,20.90
2023-04-28T19:46:22.958Z,27.60
2023-04-28T19:48:49.984Z,36.00
2023-04-28T19:51:17.078Z,42.40
2023-04-28T19:53:45.771Z,40.40
2023-04-28T19:58:41.031Z,26.20
2023-04-28T20:01:08.230Z,16.70
2023-04-28T20:03:35.665Z,17.90
2023-04-28T20:06:03.305Z,15.20
2023-04-28T20:08:30.414Z,15.00
2023-04-28T20:10:57.560Z,46.10
2023-04-28T20:13:24.724Z,35.90
2023-04-28T20:15:52.590Z,34.50
2023-04-28T20:18:19.562Z,41.50
2023-04-28T20:20:46.341Z,39.60
2023-04-28T20:23:13.261Z,21.00
2023-04-28T20:25:40.830Z,19.40
2023-04-28T20:28:07.793Z,16.90
2023-04-28T20:30:36.128Z,14.60
2023-04-28T20:33:03.416Z,13.90
2023-04-28T20:35:30.326Z,15.50
2023-04-28T20:37:57.577Z,15.60
2023-04-28T20:40:24.524Z,15.90
2023-04-28T20:42:51.344Z,14.50
2023-04-28T20:45:18.172Z,17.60
2023-04-28T20:47:45.206Z,22.10
2023-04-28T20:50:12.836Z,26.30
2023-04-28T20:52:39.725Z,23.00
2023-04-28T20:55:07.909Z,28.90
2023-04-28T20:57:34.871Z,19.50
2023-04-28T21:00:02.018Z,16.20
2023-04-28T21:02:29.142Z,23.50
2023-04-28T21:04:56.041Z,10.00
2023-04-28T21:07:23.018Z,10.70
2023-04-28T21:09:50.437Z,15.70
2023-04-28T21:12:17.545Z,14.20
2023-04-28T21:14:44.638Z,9.10
2023-04-28T21:17:11.449Z,16.60
2023-04-28T21:19:38.267Z,9.70
2023-04-28T21:22:05.139Z,12.40
2023-04-28T21:24:32.153Z,7.60
2023-04-28T21:26:59.030Z,7.50
2023-04-28T21:29:26.993Z,9.70
2023-04-28T21:31:53.980Z,14.10
2023-04-28T21:34:21.084Z,8.10
2023-04-28T21:36:47.928Z,16.50
2023-04-28T21:39:14.985Z,12.80
2023-04-28T21:41:42.290Z,7.20
2023-04-28T21:44:09.137Z,8.90
2023-04-28T21:46:36.499Z,8.50
2023-04-28T21:49:03.469Z,8.50
2023-04-28T21:51:32.076Z,8.90
2023-04-28T21:53:58.884Z,9.50
2023-04-28T21:56:25.935Z,21.50
2023-04-28T21:58:52.879Z,31.10
2023-04-28T22:01:19.779Z,35.90
2023-04-28T22:03:47.185Z,32.90
2023-04-28T22:06:14.198Z,35.40
2023-04-28T22:08:41.102Z,33.00
2023-04-28T22:11:09.033Z,33.30
2023-04-28T22:13:36.595Z,33.50
2023-04-28T22:16:04.146Z,34.30
2023-04-28T22:18:31.208Z,38.10
2023-04-28T22:20:58.074Z,47.70
2023-04-28T22:23:24.962Z,34.60
2023-04-28T22:25:51.986Z,30.00
2023-04-28T22:28:18.878Z,20.50
2023-04-28T22:30:47.047Z,16.20
2023-04-28T22:33:13.902Z,14.40
2023-04-28T22:35:40.774Z,12.50
2023-04-28T22:38:07.521Z,13.40
2023-04-28T22:40:34.526Z,11.90
2023-04-28T22:43:01.307Z,19.80
2023-04-28T22:45:28.134Z,18.00
2023-04-28T22:47:55.738Z,17.10
2023-04-28T22:50:23.221Z,20.10
2023-04-28T22:52:49.960Z,15.20
2023-04-28T22:55:18.845Z,13.30
2023-04-28T22:57:45.804Z,17.70
2023-04-28T23:00:15.508Z,13.70
2023-04-28T23:02:42.677Z,16.50
2023-04-28T23:05:10.204Z,9.20
2023-04-28T23:07:37.560Z,15.90
2023-04-28T23:10:06.351Z,12.00
2023-04-28T23:12:33.575Z,15.20
2023-04-28T23:15:00.667Z,10.70
2023-04-28T23:17:28.211Z,11.90
2023-04-28T23:19:55.356Z,9.30
2023-04-28T23:22:22.256Z,9.40
2023-04-28T23:24:49.256Z,9.30
2023-04-28T23:27:16.087Z,9.40
2023-04-28T23:29:42.927Z,10.80
2023-04-28T23:32:10.398Z,12.80
2023-04-28T23:34:38.407Z,10.80
2023-04-28T23:37:06.016Z,11.40
2023-04-28T23:39:33.312Z,13.90
2023-04-28T23:42:01.189Z,8.80
2023-04-28T23:44:28.088Z,12.30
2023-04-28T23:46:56.197Z,17.40
2023-04-28T23:49:23.601Z,13.10
2023-04-28T23:51:50.547Z,14.40
2023-04-28T23:54:17.352Z,15.40
2023-04-28T23:56:44.084Z,21.60
2023-04-28T23:59:10.863Z,22.40
